sensor_id;sensor_type;location;lat;lon;timestamp;pressure;altitude;pressure_sealevel;temperature;humidity
250;BME280;109;19.806;-70.704;2023-05-23T00:00:57;101039.25;;;26.80;54.42
250;BME280;109;19.806;-70.704;2023-05-23T00:03:25;101042.06;;;26.63;54.46
250;BME280;109;19.806;-70.704;2023-05-23T00:05:51;101048.38;;;26.78;54.94
250;BME280;109;19.806;-70.704;2023-05-23T00:08:18;101059.69;;;26.83;54.63
250;BME280;109;19.806;-70.704;2023-05-23T00:10:45;101064.97;;;26.84;54.67
250;BME280;109;19.806;-70.704;2023-05-23T00:13:11;101077.53;;;26.84;55.57
250;BME280;109;19.806;-70.704;2023-05-23T00:15:38;101080.22;;;26.84;55.45
250;BME280;109;19.806;-70.704;2023-05-23T00:18:07;101084.31;;;26.91;55.28
250;BME280;109;19.806;-70.704;2023-05-23T00:20:37;101091.59;;;26.89;55.15
250;BME280;109;19.806;-70.704;2023-05-23T00:23:08;101096.09;;;26.89;55.26
250;BME280;109;19.806;-70.704;2023-05-23T00:25:35;101105.88;;;26.90;55.90
250;BME280;109;19.806;-70.704;2023-05-23T00:28:03;101100.50;;;26.90;56.43
250;BME280;109;19.806;-70.704;2023-05-23T00:30:31;101102.84;;;26.80;56.75
250;BME280;109;19.806;-70.704;2023-05-23T00:32:58;101107.34;;;26.79;57.28
250;BME280;109;19.806;-70.704;2023-05-23T00:35:46;101105.09;;;26.72;57.28
250;BME280;109;19.806;-70.704;2023-05-23T00:38:19;101111.66;;;26.66;57.76
250;BME280;109;19.806;-70.704;2023-05-23T00:40:46;101126.06;;;26.65;57.54
250;BME280;109;19.806;-70.704;2023-05-23T00:43:20;101124.34;;;26.64;58.36
250;BME280;109;19.806;-70.704;2023-05-23T00:45:48;101131.59;;;26.62;57.84
250;BME280;109;19.806;-70.704;2023-05-23T00:48:21;101138.72;;;26.63;57.87
250;BME280;109;19.806;-70.704;2023-05-23T00:50:47;101142.50;;;26.59;57.99
250;BME280;109;19.806;-70.704;2023-05-23T00:53:21;101145.81;;;26.64;58.07
250;BME280;109;19.806;-70.704;2023-05-23T00:55:48;101153.25;;;26.59;57.68
250;BME280;109;19.806;-70.704;2023-05-23T00:58:21;101149.94;;;26.54;58.68
250;BME280;109;19.806;-70.704;2023-05-23T01:00:55;101152.13;;;26.63;58.22
250;BME280;109;19.806;-70.704;2023-05-23T01:03:29;101145.91;;;26.63;58.20
250;BME280;109;19.806;-70.704;2023-05-23T01:05:55;101147.88;;;26.59;58.74
250;BME280;109;19.806;-70.704;2023-05-23T01:08:29;101144.84;;;26.49;59.23
250;BME280;109;19.806;-70.704;2023-05-23T01:11:01;101150.13;;;26.51;59.63
250;BME280;109;19.806;-70.704;2023-05-23T01:13:45;101146.50;;;26.52;59.47
250;BME280;109;19.806;-70.704;2023-05-23T01:16:31;101146.75;;;26.47;59.45
250;BME280;109;19.806;-70.704;2023-05-23T01:22:15;101148.88;;;26.41;59.70
250;BME280;109;19.806;-70.704;2023-05-23T01:24:56;101149.19;;;26.35;60.12
250;BME280;109;19.806;-70.704;2023-05-23T01:30:19;101151.44;;;26.27;60.44
250;BME280;109;19.806;-70.704;2023-05-23T01:32:47;101153.94;;;26.30;60.73
250;BME280;109;19.806;-70.704;2023-05-23T01:35:25;101152.84;;;26.34;60.06
250;BME280;109;19.806;-70.704;2023-05-23T01:38:05;101156.91;;;26.25;60.17
250;BME280;109;19.806;-70.704;2023-05-23T01:40:31;101154.22;;;26.25;59.96
250;BME280;109;19.806;-70.704;2023-05-23T01:43:05;101157.06;;;26.22;59.79
250;BME280;109;19.806;-70.704;2023-05-23T01:45:32;101155.06;;;26.26;60.56
250;BME280;109;19.806;-70.704;2023-05-23T01:48:07;101158.50;;;26.28;60.89
250;BME280;109;19.806;-70.704;2023-05-23T01:50:34;101165.63;;;26.29;60.74
250;BME280;109;19.806;-70.704;2023-05-23T01:53:08;101165.81;;;26.26;61.11
250;BME280;109;19.806;-70.704;2023-05-23T01:55:36;101170.00;;;26.14;61.19
250;BME280;109;19.806;-70.704;2023-05-23T01:58:09;101170.25;;;26.09;61.14
250;BME280;109;19.806;-70.704;2023-05-23T02:00:43;101167.81;;;26.05;61.14
250;BME280;109;19.806;-70.704;2023-05-23T02:03:17;101174.38;;;25.99;61.50
250;BME280;109;19.806;-70.704;2023-05-23T02:05:43;101177.75;;;26.03;61.12
250;BME280;109;19.806;-70.704;2023-05-23T02:08:17;101180.50;;;26.01;61.54
250;BME280;109;19.806;-70.704;2023-05-23T02:10:43;101178.88;;;25.99;61.55
250;BME280;109;19.806;-70.704;2023-05-23T02:13:19;101191.88;;;25.89;61.52
250;BME280;109;19.806;-70.704;2023-05-23T02:15:45;101193.00;;;25.85;61.19
250;BME280;109;19.806;-70.704;2023-05-23T02:18:19;101183.81;;;25.89;61.10
250;BME280;109;19.806;-70.704;2023-05-23T02:20:49;101180.38;;;25.87;61.46
250;BME280;109;19.806;-70.704;2023-05-23T02:23:22;101188.31;;;25.89;61.32
250;BME280;109;19.806;-70.704;2023-05-23T02:25:48;101182.38;;;25.82;61.55
250;BME280;109;19.806;-70.704;2023-05-23T02:28:22;101192.38;;;25.78;61.07
250;BME280;109;19.806;-70.704;2023-05-23T02:30:48;101196.19;;;25.74;61.12
250;BME280;109;19.806;-70.704;2023-05-23T02:33:22;101193.34;;;25.77;61.31
250;BME280;109;19.806;-70.704;2023-05-23T02:36:08;101186.75;;;25.85;61.33
250;BME280;109;19.806;-70.704;2023-05-23T02:38:42;101192.25;;;25.81;60.95
250;BME280;109;19.806;-70.704;2023-05-23T02:41:10;101189.00;;;25.75;60.81
250;BME280;109;19.806;-70.704;2023-05-23T02:43:46;101187.28;;;25.74;60.76
250;BME280;109;19.806;-70.704;2023-05-23T02:46:14;101188.38;;;25.70;60.96
250;BME280;109;19.806;-70.704;2023-05-23T02:48:49;101202.72;;;25.69;61.07
250;BME280;109;19.806;-70.704;2023-05-23T02:51:16;101192.88;;;25.69;60.58
250;BME280;109;19.806;-70.704;2023-05-23T02:53:49;101196.66;;;25.65;61.17
250;BME280;109;19.806;-70.704;2023-05-23T02:56:23;101192.94;;;25.68;61.06
250;BME280;109;19.806;-70.704;2023-05-23T02:58:58;101191.13;;;25.68;60.78
250;BME280;109;19.806;-70.704;2023-05-23T03:01:24;101190.19;;;25.69;60.57
250;BME280;109;19.806;-70.704;2023-05-23T03:03:58;101198.44;;;25.65;60.92
250;BME280;109;19.806;-70.704;2023-05-23T03:06:24;101197.78;;;25.61;60.42
250;BME280;109;19.806;-70.704;2023-05-23T03:09:00;101190.50;;;25.63;60.33
250;BME280;109;19.806;-70.704;2023-05-23T03:11:26;101190.75;;;25.59;60.62
250;BME280;109;19.806;-70.704;2023-05-23T03:14:01;101192.63;;;25.57;60.78
250;BME280;109;19.806;-70.704;2023-05-23T03:16:28;101191.19;;;25.50;60.33
250;BME280;109;19.806;-70.704;2023-05-23T03:19:01;101195.91;;;25.44;60.59
250;BME280;109;19.806;-70.704;2023-05-23T03:21:29;101200.00;;;25.34;60.86
250;BME280;109;19.806;-70.704;2023-05-23T03:24:03;101194.47;;;25.37;60.60
250;BME280;109;19.806;-70.704;2023-05-23T03:26:29;101195.53;;;25.35;60.63
250;BME280;109;19.806;-70.704;2023-05-23T03:29:03;101192.44;;;25.24;61.28
250;BME280;109;19.806;-70.704;2023-05-23T03:31:29;101181.72;;;25.24;61.41
250;BME280;109;19.806;-70.704;2023-05-23T03:34:03;101184.34;;;25.25;61.29
250;BME280;109;19.806;-70.704;2023-05-23T03:36:51;101181.72;;;25.24;61.32
250;BME280;109;19.806;-70.704;2023-05-23T03:39:25;101180.72;;;25.26;61.23
250;BME280;109;19.806;-70.704;2023-05-23T03:41:51;101176.03;;;25.31;60.82
250;BME280;109;19.806;-70.704;2023-05-23T03:44:24;101161.84;;;25.29;61.23
250;BME280;109;19.806;-70.704;2023-05-23T03:46:51;101170.69;;;25.31;60.79
250;BME280;109;19.806;-70.704;2023-05-23T03:49:24;101160.94;;;25.29;60.55
250;BME280;109;19.806;-70.704;2023-05-23T03:51:58;101163.75;;;25.26;60.73
250;BME280;109;19.806;-70.704;2023-05-23T03:54:33;101163.75;;;25.26;61.01
250;BME280;109;19.806;-70.704;2023-05-23T03:56:59;101163.28;;;25.18;61.30
250;BME280;109;19.806;-70.704;2023-05-23T03:59:34;101153.31;;;25.21;61.62
250;BME280;109;19.806;-70.704;2023-05-23T04:02:02;101162.41;;;25.17;61.73
250;BME280;109;19.806;-70.704;2023-05-23T04:04:35;101157.28;;;25.13;61.82
250;BME280;109;19.806;-70.704;2023-05-23T04:07:01;101155.41;;;25.15;61.41
250;BME280;109;19.806;-70.704;2023-05-23T04:09:39;101153.81;;;25.10;61.22
250;BME280;109;19.806;-70.704;2023-05-23T04:12:08;101155.25;;;25.18;60.87
250;BME280;109;19.806;-70.704;2023-05-23T04:14:41;101152.72;;;25.15;61.30
250;BME280;109;19.806;-70.704;2023-05-23T04:17:08;101143.19;;;25.09;61.38
250;BME280;109;19.806;-70.704;2023-05-23T04:19:41;101142.41;;;25.07;61.09
250;BME280;109;19.806;-70.704;2023-05-23T04:22:07;101146.81;;;25.08;61.51
250;BME280;109;19.806;-70.704;2023-05-23T04:24:42;101133.69;;;25.02;61.41
250;BME280;109;19.806;-70.704;2023-05-23T04:27:09;101132.09;;;24.98;61.32
250;BME280;109;19.806;-70.704;2023-05-23T04:29:49;101133.91;;;24.97;61.75
250;BME280;109;19.806;-70.704;2023-05-23T04:32:24;101130.63;;;24.92;61.36
250;BME280;109;19.806;-70.704;2023-05-23T04:35:10;101129.03;;;24.88;61.51
250;BME280;109;19.806;-70.704;2023-05-23T04:37:44;101130.75;;;24.89;61.81
250;BME280;109;19.806;-70.704;2023-05-23T04:40:12;101124.66;;;24.86;61.73
250;BME280;109;19.806;-70.704;2023-05-23T04:43:06;101125.19;;;24.94;61.54
250;BME280;109;19.806;-70.704;2023-05-23T04:45:50;101118.44;;;24.85;61.84
250;BME280;109;19.806;-70.704;2023-05-23T04:48:42;101113.97;;;24.86;61.86
250;BME280;109;19.806;-70.704;2023-05-23T04:51:16;101116.44;;;24.90;61.85
250;BME280;109;19.806;-70.704;2023-05-23T04:53:57;101114.75;;;24.88;61.81
250;BME280;109;19.806;-70.704;2023-05-23T04:56:31;101111.53;;;24.81;62.26
250;BME280;109;19.806;-70.704;2023-05-23T04:58:57;101113.34;;;24.81;61.73
250;BME280;109;19.806;-70.704;2023-05-23T10:17:18;101069.66;;;24.43;63.54
250;BME280;109;19.806;-70.704;2023-05-23T10:20:09;101073.69;;;24.51;63.58
250;BME280;109;19.806;-70.704;2023-05-23T10:22:43;101074.56;;;24.52;63.35
250;BME280;109;19.806;-70.704;2023-05-23T10:25:10;101080.19;;;24.64;63.30
250;BME280;109;19.806;-70.704;2023-05-23T10:27:43;101082.56;;;24.70;62.74
250;BME280;109;19.806;-70.704;2023-05-23T10:30:11;101086.03;;;24.72;62.60
250;BME280;109;19.806;-70.704;2023-05-23T10:32:44;101094.28;;;24.87;62.46
250;BME280;109;19.806;-70.704;2023-05-23T10:38:45;101094.53;;;24.99;62.00
250;BME280;109;19.806;-70.704;2023-05-23T10:41:26;101100.22;;;25.10;61.69
250;BME280;109;19.806;-70.704;2023-05-23T10:44:16;101100.09;;;25.14;62.14
250;BME280;109;19.806;-70.704;2023-05-23T10:46:57;101106.63;;;25.25;62.29
250;BME280;109;19.806;-70.704;2023-05-23T10:49:37;101110.47;;;25.38;61.66
250;BME280;109;19.806;-70.704;2023-05-23T10:52:15;101115.19;;;25.51;61.83
250;BME280;109;19.806;-70.704;2023-05-23T10:54:51;101117.44;;;25.60;61.32
250;BME280;109;19.806;-70.704;2023-05-23T10:57:20;101115.63;;;25.60;61.83
250;BME280;109;19.806;-70.704;2023-05-23T10:59:54;101120.41;;;25.71;61.53
250;BME280;109;19.806;-70.704;2023-05-23T11:02:25;101120.94;;;25.77;61.69
250;BME280;109;19.806;-70.704;2023-05-23T11:05:21;101129.50;;;25.86;61.69
250;BME280;109;19.806;-70.704;2023-05-23T11:08:13;101130.31;;;26.03;61.63
250;BME280;109;19.806;-70.704;2023-05-23T11:11:02;101128.91;;;26.13;61.06
250;BME280;109;19.806;-70.704;2023-05-23T11:21:49;101143.81;;;26.68;59.84
250;BME280;109;19.806;-70.704;2023-05-23T11:24:15;101142.88;;;26.84;59.56
250;BME280;109;19.806;-70.704;2023-05-23T11:26:54;101148.34;;;26.99;59.11
250;BME280;109;19.806;-70.704;2023-05-23T11:29:28;101156.06;;;27.05;59.03
250;BME280;109;19.806;-70.704;2023-05-23T11:31:55;101143.41;;;27.07;58.48
250;BME280;109;19.806;-70.704;2023-05-23T11:34:24;101152.47;;;27.20;58.79
250;BME280;109;19.806;-70.704;2023-05-23T11:36:53;101150.91;;;27.32;58.48
250;BME280;109;19.806;-70.704;2023-05-23T11:39:21;101151.97;;;27.29;57.32
250;BME280;109;19.806;-70.704;2023-05-23T11:42:01;101165.91;;;27.20;57.36
250;BME280;109;19.806;-70.704;2023-05-23T11:44:28;101157.41;;;27.43;57.25
250;BME280;109;19.806;-70.704;2023-05-23T11:47:05;101164.00;;;27.53;57.03
250;BME280;109;19.806;-70.704;2023-05-23T11:49:36;101164.22;;;27.65;57.22
250;BME280;109;19.806;-70.704;2023-05-23T11:52:04;101165.78;;;27.69;57.65
250;BME280;109;19.806;-70.704;2023-05-23T11:54:32;101168.72;;;27.64;57.19
250;BME280;109;19.806;-70.704;2023-05-23T11:56:58;101164.22;;;27.65;57.68
250;BME280;109;19.806;-70.704;2023-05-23T11:59:25;101163.63;;;27.60;58.23
250;BME280;109;19.806;-70.704;2023-05-23T12:01:54;101167.81;;;27.49;58.21
250;BME280;109;19.806;-70.704;2023-05-23T12:04:21;101165.34;;;27.61;58.49
250;BME280;109;19.806;-70.704;2023-05-23T12:06:48;101171.38;;;27.50;58.72
250;BME280;109;19.806;-70.704;2023-05-23T12:09:15;101180.13;;;27.53;58.87
250;BME280;109;19.806;-70.704;2023-05-23T12:11:43;101172.63;;;27.59;58.64
250;BME280;109;19.806;-70.704;2023-05-23T12:14:15;101172.59;;;27.44;58.10
250;BME280;109;19.806;-70.704;2023-05-23T12:16:45;101181.66;;;27.58;58.22
250;BME280;109;19.806;-70.704;2023-05-23T12:19:13;101172.41;;;27.77;57.83
250;BME280;109;19.806;-70.704;2023-05-23T12:21:46;101175.88;;;27.79;57.44
250;BME280;109;19.806;-70.704;2023-05-23T12:24:16;101171.41;;;27.94;56.60
250;BME280;109;19.806;-70.704;2023-05-23T12:26:54;101178.25;;;28.00;56.53
250;BME280;109;19.806;-70.704;2023-05-23T12:29:33;101170.59;;;28.08;57.46
250;BME280;109;19.806;-70.704;2023-05-23T12:32:01;101182.97;;;28.10;57.03
250;BME280;109;19.806;-70.704;2023-05-23T12:34:28;101180.00;;;28.15;57.10
250;BME280;109;19.806;-70.704;2023-05-23T12:36:56;101171.34;;;28.10;56.94
250;BME280;109;19.806;-70.704;2023-05-23T12:39:24;101176.19;;;28.19;56.51
250;BME280;109;19.806;-70.704;2023-05-23T12:41:54;101172.03;;;28.28;56.60
250;BME280;109;19.806;-70.704;2023-05-23T12:44:28;101172.53;;;28.34;55.94
250;BME280;109;19.806;-70.704;2023-05-23T12:46:56;101174.25;;;28.35;56.02
250;BME280;109;19.806;-70.704;2023-05-23T12:49:23;101174.63;;;28.29;56.29
250;BME280;109;19.806;-70.704;2023-05-23T12:51:49;101178.56;;;28.38;55.91
250;BME280;109;19.806;-70.704;2023-05-23T12:54:16;101183.78;;;28.41;56.29
250;BME280;109;19.806;-70.704;2023-05-23T12:56:43;101178.56;;;28.38;56.00
250;BME280;109;19.806;-70.704;2023-05-23T12:59:09;101178.38;;;28.26;55.80
250;BME280;109;19.806;-70.704;2023-05-23T13:01:36;101185.41;;;28.29;56.73
250;BME280;109;19.806;-70.704;2023-05-23T13:04:02;101183.19;;;28.21;56.92
250;BME280;109;19.806;-70.704;2023-05-23T13:06:29;101182.44;;;28.34;56.92
250;BME280;109;19.806;-70.704;2023-05-23T13:08:56;101172.03;;;28.28;56.19
250;BME280;109;19.806;-70.704;2023-05-23T13:11:23;101177.13;;;28.18;56.69
250;BME280;109;19.806;-70.704;2023-05-23T13:13:50;101182.78;;;28.13;56.69
250;BME280;109;19.806;-70.704;2023-05-23T13:16:17;101185.00;;;28.07;56.89
250;BME280;109;19.806;-70.704;2023-05-23T13:18:44;101177.59;;;28.10;56.67
250;BME280;109;19.806;-70.704;2023-05-23T13:21:10;101177.59;;;28.24;56.14
250;BME280;109;19.806;-70.704;2023-05-23T13:23:37;101180.97;;;28.28;56.23
250;BME280;109;19.806;-70.704;2023-05-23T13:26:04;101180.13;;;28.28;56.20
250;BME280;109;19.806;-70.704;2023-05-23T13:28:32;101186.19;;;28.45;55.61
250;BME280;109;19.806;-70.704;2023-05-23T13:30:59;101183.22;;;28.50;56.31
250;BME280;109;19.806;-70.704;2023-05-23T13:33:26;101184.75;;;28.54;55.80
250;BME280;109;19.806;-70.704;2023-05-23T13:35:53;101180.31;;;28.67;55.99
250;BME280;109;19.806;-70.704;2023-05-23T13:38:20;101186.50;;;28.69;56.28
250;BME280;109;19.806;-70.704;2023-05-23T13:40:46;101182.06;;;28.68;55.41
250;BME280;109;19.806;-70.704;2023-05-23T13:43:13;101182.06;;;28.68;56.09
250;BME280;109;19.806;-70.704;2023-05-23T13:45:39;101181.97;;;28.55;55.95
250;BME280;109;19.806;-70.704;2023-05-23T13:48:06;101181.47;;;28.63;56.37
250;BME280;109;19.806;-70.704;2023-05-23T13:50:32;101189.84;;;28.73;57.80
250;BME280;109;19.806;-70.704;2023-05-23T13:52:59;101186.28;;;28.44;58.03
250;BME280;109;19.806;-70.704;2023-05-23T13:55:25;101180.13;;;28.42;57.40
250;BME280;109;19.806;-70.704;2023-05-23T13:57:52;101189.84;;;28.44;58.90
250;BME280;109;19.806;-70.704;2023-05-23T14:00:19;101187.25;;;28.43;57.97
250;BME280;109;19.806;-70.704;2023-05-23T14:02:45;101190.75;;;28.59;58.12
250;BME280;109;19.806;-70.704;2023-05-23T14:05:12;101191.69;;;28.72;57.50
250;BME280;109;19.806;-70.704;2023-05-23T14:07:38;101192.06;;;28.66;58.28
250;BME280;109;19.806;-70.704;2023-05-23T14:10:06;101191.28;;;28.64;58.24
250;BME280;109;19.806;-70.704;2023-05-23T14:12:34;101190.31;;;28.65;58.29
250;BME280;109;19.806;-70.704;2023-05-23T14:15:00;101197.81;;;28.74;56.77
250;BME280;109;19.806;-70.704;2023-05-23T14:17:27;101200.72;;;28.71;57.40
250;BME280;109;19.806;-70.704;2023-05-23T14:19:53;101195.13;;;28.74;57.46
250;BME280;109;19.806;-70.704;2023-05-23T14:22:19;101186.84;;;28.77;56.86
250;BME280;109;19.806;-70.704;2023-05-23T14:24:46;101196.53;;;28.94;57.81
250;BME280;109;19.806;-70.704;2023-05-23T14:27:12;101202.31;;;28.88;57.08
250;BME280;109;19.806;-70.704;2023-05-23T14:29:39;101194.22;;;28.88;57.91
250;BME280;109;19.806;-70.704;2023-05-23T14:32:06;101189.53;;;28.91;57.11
250;BME280;109;19.806;-70.704;2023-05-23T14:34:32;101190.56;;;28.89;57.47
250;BME280;109;19.806;-70.704;2023-05-23T14:36:59;101186.06;;;28.89;57.19
250;BME280;109;19.806;-70.704;2023-05-23T14:39:26;101185.66;;;28.95;57.55
250;BME280;109;19.806;-70.704;2023-05-23T14:41:54;101188.84;;;28.88;57.05
250;BME280;109;19.806;-70.704;2023-05-23T14:44:20;101186.47;;;28.98;56.56
250;BME280;109;19.806;-70.704;2023-05-23T14:46:47;101189.91;;;29.00;56.74
250;BME280;109;19.806;-70.704;2023-05-23T14:49:16;101190.38;;;29.06;57.04
250;BME280;109;19.806;-70.704;2023-05-23T14:51:42;101194.13;;;29.04;56.74
250;BME280;109;19.806;-70.704;2023-05-23T14:54:09;101195.59;;;29.09;56.42
250;BME280;109;19.806;-70.704;2023-05-23T14:56:35;101196.56;;;29.35;56.88
250;BME280;109;19.806;-70.704;2023-05-23T14:59:06;101190.81;;;29.54;56.18
250;BME280;109;19.806;-70.704;2023-05-23T15:01:33;101180.06;;;29.40;56.78
250;BME280;109;19.806;-70.704;2023-05-23T15:03:59;101184.25;;;29.31;56.69
250;BME280;109;19.806;-70.704;2023-05-23T15:06:26;101177.94;;;29.18;56.40
250;BME280;109;19.806;-70.704;2023-05-23T15:08:53;101183.81;;;29.24;56.28
250;BME280;109;19.806;-70.704;2023-05-23T15:11:19;101175.53;;;29.40;56.29
250;BME280;109;19.806;-70.704;2023-05-23T15:13:46;101180.22;;;29.24;56.66
250;BME280;109;19.806;-70.704;2023-05-23T15:16:12;101181.22;;;29.50;56.19
250;BME280;109;19.806;-70.704;2023-05-23T15:18:39;101167.50;;;29.26;56.55
250;BME280;109;19.806;-70.704;2023-05-23T15:21:05;101172.25;;;29.22;56.02
250;BME280;109;19.806;-70.704;2023-05-23T15:23:32;101171.22;;;29.11;56.02
250;BME280;109;19.806;-70.704;2023-05-23T15:25:58;101173.13;;;29.23;56.65
250;BME280;109;19.806;-70.704;2023-05-23T15:28:25;101166.47;;;29.41;56.27
250;BME280;109;19.806;-70.704;2023-05-23T15:30:51;101171.88;;;29.41;55.72
250;BME280;109;19.806;-70.704;2023-05-23T15:33:19;101166.44;;;29.28;55.57
250;BME280;109;19.806;-70.704;2023-05-23T15:35:46;101160.22;;;29.41;55.44
250;BME280;109;19.806;-70.704;2023-05-23T15:38:13;101160.84;;;29.31;55.32
250;BME280;109;19.806;-70.704;2023-05-23T15:40:39;101159.09;;;29.30;55.96
250;BME280;109;19.806;-70.704;2023-05-23T15:43:06;101165.25;;;29.47;56.10
250;BME280;109;19.806;-70.704;2023-05-23T15:45:32;101157.94;;;29.61;56.10
250;BME280;109;19.806;-70.704;2023-05-23T15:47:59;101152.75;;;29.58;56.37
250;BME280;109;19.806;-70.704;2023-05-23T15:50:25;101147.75;;;29.52;55.25
250;BME280;109;19.806;-70.704;2023-05-23T15:52:52;101152.97;;;29.41;55.27
250;BME280;109;19.806;-70.704;2023-05-23T15:55:18;101150.78;;;29.48;56.55
250;BME280;109;19.806;-70.704;2023-05-23T15:57:44;101141.72;;;29.49;55.59
250;BME280;109;19.806;-70.704;2023-05-23T16:00:11;101140.53;;;29.53;55.88
250;BME280;109;19.806;-70.704;2023-05-23T16:02:38;101134.19;;;29.66;55.19
250;BME280;109;19.806;-70.704;2023-05-23T16:05:05;101132.13;;;29.57;55.85
250;BME280;109;19.806;-70.704;2023-05-23T16:07:32;101132.94;;;29.45;55.54
250;BME280;109;19.806;-70.704;2023-05-23T16:09:58;101137.56;;;29.43;56.77
250;BME280;109;19.806;-70.704;2023-05-23T16:12:24;101128.88;;;29.52;56.11
250;BME280;109;19.806;-70.704;2023-05-23T16:14:51;101121.50;;;29.42;56.05
250;BME280;109;19.806;-70.704;2023-05-23T16:17:17;101122.53;;;29.53;56.48
250;BME280;109;19.806;-70.704;2023-05-23T16:19:44;101123.56;;;29.38;56.38
250;BME280;109;19.806;-70.704;2023-05-23T16:22:10;101115.53;;;29.24;56.63
250;BME280;109;19.806;-70.704;2023-05-23T16:24:37;101114.03;;;29.33;56.59
250;BME280;109;19.806;-70.704;2023-05-23T16:27:03;101106.69;;;29.22;56.07
250;BME280;109;19.806;-70.704;2023-05-23T16:29:30;101109.22;;;29.38;56.43
250;BME280;109;19.806;-70.704;2023-05-23T16:31:56;101108.34;;;29.37;56.98
250;BME280;109;19.806;-70.704;2023-05-23T16:34:23;101098.00;;;29.44;56.36
250;BME280;109;19.806;-70.704;2023-05-23T16:36:50;101112.38;;;29.17;56.95
250;BME280;109;19.806;-70.704;2023-05-23T16:39:16;101103.03;;;29.23;56.91
250;BME280;109;19.806;-70.704;2023-05-23T16:41:43;101102.94;;;29.37;56.95
250;BME280;109;19.806;-70.704;2023-05-23T16:44:09;101104.53;;;29.27;56.48
250;BME280;109;19.806;-70.704;2023-05-23T16:46:36;101099.16;;;29.40;56.10
250;BME280;109;19.806;-70.704;2023-05-23T16:49:02;101096.31;;;29.55;57.44
250;BME280;109;19.806;-70.704;2023-05-23T16:51:29;101097.13;;;29.43;56.51
250;BME280;109;19.806;-70.704;2023-05-23T16:53:56;101088.22;;;29.68;55.79
250;BME280;109;19.806;-70.704;2023-05-23T16:56:23;101091.69;;;29.57;56.07
250;BME280;109;19.806;-70.704;2023-05-23T16:58:49;101079.38;;;29.53;55.06
250;BME280;109;19.806;-70.704;2023-05-23T17:01:16;101078.41;;;29.54;57.03
250;BME280;109;19.806;-70.704;2023-05-23T17:03:44;101087.38;;;29.67;56.75
250;BME280;109;19.806;-70.704;2023-05-23T17:06:11;101078.22;;;29.83;57.06
250;BME280;109;19.806;-70.704;2023-05-23T17:08:37;101074.44;;;29.73;56.63
250;BME280;109;19.806;-70.704;2023-05-23T17:11:04;101073.47;;;29.61;56.35
250;BME280;109;19.806;-70.704;2023-05-23T17:13:30;101067.28;;;29.46;56.54
250;BME280;109;19.806;-70.704;2023-05-23T17:15:57;101069.44;;;29.66;56.16
250;BME280;109;19.806;-70.704;2023-05-23T17:18:24;101066.22;;;29.61;56.90
250;BME280;109;19.806;-70.704;2023-05-23T17:20:50;101059.56;;;29.40;56.38
250;BME280;109;19.806;-70.704;2023-05-23T17:23:17;101068.22;;;29.45;57.03
250;BME280;109;19.806;-70.704;2023-05-23T17:25:44;101065.34;;;29.48;56.33
250;BME280;109;19.806;-70.704;2023-05-23T17:28:10;101063.91;;;29.43;56.58
250;BME280;109;19.806;-70.704;2023-05-23T17:30:37;101067.31;;;29.59;57.15
250;BME280;109;19.806;-70.704;2023-05-23T17:33:03;101047.88;;;29.66;56.09
250;BME280;109;19.806;-70.704;2023-05-23T17:35:30;101055.09;;;29.53;55.86
250;BME280;109;19.806;-70.704;2023-05-23T17:37:56;101054.09;;;29.42;56.77
250;BME280;109;19.806;-70.704;2023-05-23T17:40:23;101047.25;;;29.63;55.58
250;BME280;109;19.806;-70.704;2023-05-23T17:42:50;101053.91;;;29.83;56.65
250;BME280;109;19.806;-70.704;2023-05-23T17:45:17;101045.06;;;29.81;56.32
250;BME280;109;19.806;-70.704;2023-05-23T17:47:47;101044.88;;;29.71;55.03
250;BME280;109;19.806;-70.704;2023-05-23T17:50:14;101050.69;;;29.65;54.77
250;BME280;109;19.806;-70.704;2023-05-23T17:52:40;101041.50;;;29.67;55.00
250;BME280;109;19.806;-70.704;2023-05-23T17:55:07;101046.47;;;29.48;56.17
250;BME280;109;19.806;-70.704;2023-05-23T17:57:34;101034.78;;;29.35;55.18
250;BME280;109;19.806;-70.704;2023-05-23T18:00:01;101034.78;;;29.22;55.49
250;BME280;109;19.806;-70.704;2023-05-23T18:02:27;101035.16;;;29.56;55.84
250;BME280;109;19.806;-70.704;2023-05-23T18:04:54;101034.50;;;29.90;55.94
250;BME280;109;19.806;-70.704;2023-05-23T18:07:21;101035.03;;;29.70;54.82
250;BME280;109;19.806;-70.704;2023-05-23T18:09:48;101033.41;;;29.67;54.94
250;BME280;109;19.806;-70.704;2023-05-23T18:12:14;101028.69;;;29.71;54.95
250;BME280;109;19.806;-70.704;2023-05-23T18:14:41;101027.59;;;29.61;55.92
250;BME280;109;19.806;-70.704;2023-05-23T18:17:08;101015.41;;;29.68;54.84
250;BME280;109;19.806;-70.704;2023-05-23T18:19:35;101010.75;;;29.70;54.85
250;BME280;109;19.806;-70.704;2023-05-23T18:22:02;101005.38;;;29.70;55.84
250;BME280;109;19.806;-70.704;2023-05-23T18:24:28;101014.34;;;29.58;56.23
250;BME280;109;19.806;-70.704;2023-05-23T18:26:55;101023.28;;;29.84;54.45
250;BME280;109;19.806;-70.704;2023-05-23T18:29:21;101015.28;;;29.95;54.11
250;BME280;109;19.806;-70.704;2023-05-23T18:31:48;101007.97;;;29.72;54.57
250;BME280;109;19.806;-70.704;2023-05-23T18:34:14;101002.44;;;29.35;55.57
250;BME280;109;19.806;-70.704;2023-05-23T18:36:41;100986.41;;;29.46;55.70
250;BME280;109;19.806;-70.704;2023-05-23T18:39:08;100986.41;;;29.46;56.01
250;BME280;109;19.806;-70.704;2023-05-23T18:41:34;100983.81;;;29.57;55.56
250;BME280;109;19.806;-70.704;2023-05-23T18:44:01;100986.06;;;29.63;55.39
250;BME280;109;19.806;-70.704;2023-05-23T18:46:29;100988.97;;;29.60;54.65
250;BME280;109;19.806;-70.704;2023-05-23T18:48:56;100998.13;;;29.71;55.27
250;BME280;109;19.806;-70.704;2023-05-23T18:51:23;100997.94;;;29.74;54.71
250;BME280;109;19.806;-70.704;2023-05-23T18:53:49;101006.53;;;30.04;54.58
250;BME280;109;19.806;-70.704;2023-05-23T18:56:16;101013.25;;;30.35;52.81